Time;durP1;ratioP1;P1;durP2;ratioP2;P2;SDS_P1;SDS_P2;PMS_P1;PMS_P2;Temp;Humidity;BMP_temperature;BMP_pressure;BME280_temperature;BME280_humidity;BME280_pressure;Samples;Min_cycle;Max_cycle;Signal;HPM_P1;HPM_P2
2022/01/28 00:01:14;;;;;;;6.57;0.85;;;26.20;99.90;;;;;;5051483;28;20385;-68
2022/01/28 00:03:41;;;;;;;9.00;0.75;;;26.40;99.90;;;;;;5049335;28;20033;-68
2022/01/28 00:06:09;;;;;;;5.05;0.60;;;26.50;99.90;;;;;;5053232;28;20029;-68
2022/01/28 00:08:36;;;;;;;6.28;0.80;;;26.70;99.90;;;;;;5052477;28;20142;-66
2022/01/28 00:11:04;;;;;;;3.30;0.85;;;26.80;99.90;;;;;;5053223;28;20155;-66
2022/01/28 00:39:42;;;;;;;5.25;0.80;;;27.80;99.90;;;;;;5052826;28;20036;-68
2022/01/28 00:42:09;;;;;;;5.55;1.00;;;27.90;99.90;;;;;;5048465;28;20053;-67
2022/01/28 00:44:37;;;;;;;7.22;0.95;;;28.00;99.90;;;;;;5051469;28;20115;-66
2022/01/28 00:47:05;;;;;;;4.55;0.90;;;27.90;99.90;;;;;;5050641;28;20025;-67
2022/01/28 00:49:32;;;;;;;7.13;1.08;;;27.80;99.90;;;;;;5051886;28;20501;-67
2022/01/28 00:51:59;;;;;;;5.63;0.82;;;28.00;99.90;;;;;;5051301;28;20420;-67
2022/01/28 00:54:27;;;;;;;5.53;0.93;;;28.10;99.90;;;;;;5050296;28;20033;-67
2022/01/28 00:56:54;;;;;;;4.53;1.23;;;28.30;99.90;;;;;;5052357;28;20021;-67
2022/01/28 00:59:21;;;;;;;7.18;1.55;;;28.40;99.90;;;;;;5051655;28;20021;-67
2022/01/28 01:01:48;;;;;;;5.78;1.10;;;28.10;99.90;;;;;;5050514;28;20245;-67
2022/01/28 01:04:16;;;;;;;4.22;0.93;;;28.20;99.90;;;;;;5038604;28;20021;-67
2022/01/28 01:06:43;;;;;;;4.57;0.52;;;28.20;99.90;;;;;;5050613;28;20029;-67
2022/01/28 01:09:10;;;;;;;3.13;0.60;;;28.00;99.90;;;;;;5052237;28;20071;-67
2022/01/28 01:11:40;;;;;;;5.45;0.60;;;28.00;99.90;;;;;;5051315;28;20477;-67
2022/01/28 01:14:07;;;;;;;3.90;0.73;;;28.30;99.90;;;;;;5051994;28;20556;-67
2022/01/28 01:16:47;;;;;;;4.18;0.68;;;28.40;99.90;;;;;;5051065;28;20078;-67
2022/01/28 01:19:22;;;;;;;4.25;1.00;;;28.40;99.90;;;;;;5050946;28;20393;-67
2022/01/28 01:21:55;;;;;;;5.18;0.63;;;28.70;99.90;;;;;;5051012;28;20397;-67
2022/01/28 01:24:25;;;;;;;3.55;0.70;;;28.70;99.90;;;;;;5052273;28;20074;-67
2022/01/28 01:26:52;;;;;;;5.22;0.85;;;29.00;99.90;;;;;;5050214;28;20409;-67
2022/01/28 01:29:22;;;;;;;4.80;1.08;;;29.20;99.90;;;;;;5051289;28;20033;-67
2022/01/28 01:31:50;;;;;;;3.45;0.60;;;29.20;99.90;;;;;;5051430;28;20075;-67
2022/01/28 01:34:22;;;;;;;5.65;1.25;;;29.40;99.90;;;;;;5051009;28;20032;-67
2022/01/28 01:36:49;;;;;;;14.30;2.15;;;29.30;99.90;;;;;;5048677;28;20029;-67
2022/01/28 01:39:30;;;;;;;6.40;1.00;;;28.80;99.90;;;;;;5048440;28;20040;-67
2022/01/28 01:42:05;;;;;;;5.50;1.02;;;28.70;99.90;;;;;;5033561;28;20033;-67
2022/01/28 01:45:11;;;;;;;3.83;0.63;;;28.90;99.90;;;;;;5051733;28;20033;-67
2022/01/28 01:52:56;;;;;;;5.35;0.80;;;28.70;99.90;;;;;;5055475;28;20078;-67
2022/01/28 01:55:24;;;;;;;4.40;0.50;;;28.90;99.90;;;;;;5054690;28;20067;-67
2022/01/28 01:57:52;;;;;;;1.88;0.70;;;29.00;99.90;;;;;;5054499;28;20033;-67
2022/01/28 02:00:19;;;;;;;5.20;0.70;;;28.70;99.90;;;;;;5055591;28;20120;-67
2022/01/28 02:02:47;;;;;;;2.53;0.50;;;28.90;99.90;;;;;;5054337;28;20033;-67
2022/01/28 02:05:14;;;;;;;7.07;1.00;;;28.80;99.90;;;;;;5054516;28;20036;-67
2022/01/28 02:07:45;;;;;;;2.70;0.40;;;28.90;99.90;;;;;;5054288;28;20032;-67
2022/01/28 02:10:14;;;;;;;6.95;0.90;;;28.90;99.90;;;;;;5055212;28;20385;-67
2022/01/28 02:12:50;;;;;;;6.95;0.50;;;29.10;99.90;;;;;;5054351;28;20397;-67
2022/01/28 02:15:19;;;;;;;7.53;0.90;;;29.20;99.90;;;;;;5055201;28;20029;-67
2022/01/28 02:17:46;;;;;;;4.53;0.63;;;29.40;99.90;;;;;;5054233;28;20036;-67
2022/01/28 02:20:36;;;;;;;6.72;0.93;;;28.90;99.90;;;;;;5055073;28;20520;-67
2022/01/28 02:23:05;;;;;;;4.93;0.93;;;28.90;99.90;;;;;;5054127;28;20041;-67
2022/01/28 02:25:34;;;;;;;3.80;0.60;;;28.90;99.90;;;;;;5054022;28;20510;-67
2022/01/28 02:28:05;;;;;;;3.70;0.60;;;29.00;99.90;;;;;;5053637;28;20041;-67
2022/01/28 02:30:32;;;;;;;3.47;0.63;;;29.20;99.90;;;;;;5053467;28;20100;-67
2022/01/28 02:33:19;;;;;;;5.95;0.95;;;29.20;99.90;;;;;;5053707;28;20063;-67
2022/01/28 02:35:47;;;;;;;2.33;0.50;;;29.40;99.90;;;;;;5054328;28;20025;-67
2022/01/28 02:38:16;;;;;;;4.93;0.70;;;29.60;99.90;;;;;;5052858;28;20535;-67
2022/01/28 02:40:52;;;;;;;4.63;0.70;;;29.70;99.90;;;;;;5054567;28;20017;-67
2022/01/28 02:46:08;;;;;;;2.75;0.50;;;29.40;99.90;;;;;;5055656;28;20041;-67
2022/01/28 02:48:40;;;;;;;6.88;0.98;;;29.00;99.90;;;;;;5053733;28;20032;-67
2022/01/28 02:51:17;;;;;;;6.32;0.77;;;29.10;99.90;;;;;;5054496;28;20029;-67
2022/01/28 02:53:53;;;;;;;4.05;0.70;;;29.10;99.90;;;;;;5052698;28;20053;-67
2022/01/28 02:56:31;;;;;;;4.60;0.50;;;29.00;99.90;;;;;;5054983;28;20029;-67
2022/01/28 02:58:59;;;;;;;4.93;0.77;;;29.20;99.90;;;;;;5054964;28;20319;-67
2022/01/28 03:01:26;;;;;;;5.68;0.50;;;29.10;99.90;;;;;;5053654;28;20024;-67
2022/01/28 03:03:55;;;;;;;4.07;0.45;;;29.00;99.90;;;;;;5054103;28;20056;-67
2022/01/28 03:06:23;;;;;;;2.53;0.50;;;29.30;99.90;;;;;;5052939;28;20025;-67
2022/01/28 03:08:57;;;;;;;3.90;0.20;;;29.50;99.90;;;;;;5053962;28;20025;-67
2022/01/28 03:16:27;;;;;;;3.03;0.43;;;29.20;99.90;;;;;;5053257;28;20036;-67
2022/01/28 03:18:59;;;;;;;4.57;0.63;;;28.90;99.90;;;;;;5052632;28;20075;-67
2022/01/28 03:23:57;;;;;;;4.05;0.77;;;29.00;99.90;;;;;;5053439;28;20037;-67
2022/01/28 03:26:28;;;;;;;2.88;0.30;;;29.20;99.90;;;;;;5051822;28;20511;-67
2022/01/28 03:28:55;;;;;;;3.05;0.60;;;29.20;99.90;;;;;;5053263;28;20535;-67
2022/01/28 03:31:22;;;;;;;2.83;0.52;;;29.20;99.90;;;;;;5052984;28;20070;-68
2022/01/28 03:33:50;;;;;;;3.63;0.32;;;29.00;99.90;;;;;;5067501;28;20481;-67
2022/01/28 03:36:17;;;;;;;5.85;0.68;;;28.80;99.90;;;;;;5053730;28;20029;-67
2022/01/28 03:38:48;;;;;;;3.80;0.70;;;28.60;99.90;;;;;;5051514;28;20036;-67
2022/01/28 03:41:19;;;;;;;3.13;0.45;;;28.50;99.90;;;;;;5052306;28;20397;-67
2022/01/28 03:43:47;;;;;;;5.45;1.10;;;28.60;99.90;;;;;;5052634;28;20060;-67
2022/01/28 03:46:16;;;;;;;3.08;0.47;;;28.60;99.90;;;;;;5052378;28;20504;-67
2022/01/28 03:48:44;;;;;;;9.93;0.88;;;28.40;99.90;;;;;;5050246;28;20462;-67
2022/01/28 03:51:11;;;;;;;3.55;0.55;;;28.40;99.90;;;;;;5053034;28;20103;-67
2022/01/28 03:53:38;;;;;;;4.78;0.65;;;28.30;99.90;;;;;;5052303;28;20100;-67
2022/01/28 03:56:06;;;;;;;4.43;0.70;;;28.30;99.90;;;;;;5053280;28;20496;-67
2022/01/28 03:58:33;;;;;;;3.90;0.90;;;28.20;99.90;;;;;;5052391;28;20040;-67
2022/01/28 04:01:01;;;;;;;4.70;0.60;;;28.20;99.90;;;;;;5053126;28;20017;-67
2022/01/28 04:11:33;;;;;;;5.88;0.90;;;28.00;99.90;;;;;;5052313;28;20036;-67
2022/01/28 04:14:16;;;;;;;4.10;0.80;;;28.00;99.90;;;;;;5033132;28;20401;-67
2022/01/28 04:19:28;;;;;;;4.47;0.63;;;28.10;99.90;;;;;;5051247;28;20163;-67
2022/01/28 04:21:55;;;;;;;5.22;0.85;;;28.20;99.90;;;;;;5050440;28;20017;-67
2022/01/28 04:24:23;;;;;;;5.10;0.93;;;28.20;99.90;;;;;;5051393;28;20037;-67
2022/01/28 04:26:50;;;;;;;3.67;0.70;;;28.20;99.90;;;;;;5050726;28;20045;-67
2022/01/28 04:29:18;;;;;;;2.65;0.38;;;28.10;99.90;;;;;;5051605;28;20021;-67
2022/01/28 04:31:47;;;;;;;4.20;0.50;;;27.90;99.90;;;;;;5048938;28;20110;-67
2022/01/28 04:34:16;;;;;;;4.07;0.52;;;27.60;99.90;;;;;;5053065;28;20031;-67
2022/01/28 04:39:29;;;;;;;4.75;0.70;;;27.60;99.90;;;;;;5052708;28;20521;-67
2022/01/28 04:42:17;;;;;;;5.80;0.60;;;27.70;99.90;;;;;;5050660;28;20105;-67
2022/01/28 04:44:57;;;;;;;5.38;0.70;;;27.60;99.90;;;;;;5051474;28;20033;-67
2022/01/28 04:47:34;;;;;;;3.03;0.50;;;27.40;99.90;;;;;;5050437;28;20116;-67
2022/01/28 04:50:23;;;;;;;7.47;0.95;;;27.50;99.90;;;;;;5051813;28;20083;-67
2022/01/28 04:58:10;;;;;;;6.07;0.77;;;27.80;99.90;;;;;;5051650;28;20033;-67
2022/01/28 05:25:47;;;;;;;5.03;0.40;;;27.40;99.90;;;;;;5029728;28;20405;-68
2022/01/28 05:27:59;;;;;;;4.57;0.55;;;27.60;99.90;;;;;;5051258;28;20045;-67
2022/01/28 05:30:26;;;;;;;4.53;0.43;;;27.50;99.90;;;;;;5056093;28;20021;-67
2022/01/28 05:32:53;;;;;;;3.45;0.43;;;27.40;99.90;;;;;;5037489;28;20055;-67
2022/01/28 05:35:21;;;;;;;5.65;1.13;;;27.30;99.90;;;;;;5055431;28;20025;-67
2022/01/28 05:37:48;;;;;;;5.18;0.90;;;27.40;99.90;;;;;;5054158;28;20040;-67
2022/01/28 05:40:15;;;;;;;3.70;0.57;;;27.40;99.90;;;;;;5054523;28;20393;-67
2022/01/28 05:42:42;;;;;;;4.50;0.60;;;27.20;99.90;;;;;;5052350;28;20053;-67
2022/01/28 05:45:10;;;;;;;3.83;0.22;;;27.20;99.90;;;;;;5053134;28;20056;-67
2022/01/28 05:47:37;;;;;;;5.82;0.63;;;27.10;99.90;;;;;;5054639;28;20025;-67
2022/01/28 05:50:05;;;;;;;5.43;0.90;;;27.10;99.90;;;;;;5055870;28;20146;-67
2022/01/28 05:52:34;;;;;;;5.20;0.63;;;27.20;99.90;;;;;;5054887;28;20031;-67
2022/01/28 05:55:01;;;;;;;5.50;0.90;;;27.20;99.90;;;;;;5054402;28;20045;-67
2022/01/28 05:57:28;;;;;;;4.97;0.77;;;27.00;99.90;;;;;;5054480;28;20025;-67
2022/01/28 05:59:56;;;;;;;10.85;1.50;;;27.00;99.90;;;;;;5055127;28;20024;-67
2022/01/28 06:02:23;;;;;;;6.18;0.77;;;27.20;99.90;;;;;;5054386;28;20031;-67
2022/01/28 06:04:50;;;;;;;4.03;0.82;;;27.00;99.90;;;;;;5054397;28;20040;-67
2022/01/28 06:07:20;;;;;;;5.25;1.50;;;26.80;99.90;;;;;;5053361;28;20029;-67
2022/01/28 06:09:47;;;;;;;5.30;0.55;;;26.70;99.90;;;;;;5052996;28;20436;-67
2022/01/28 06:12:14;;;;;;;5.10;0.60;;;26.60;99.90;;;;;;5051816;28;20036;-67
2022/01/28 06:14:42;;;;;;;5.05;0.82;;;26.70;99.90;;;;;;5050072;28;20032;-67
2022/01/28 06:17:09;;;;;;;4.10;0.60;;;26.70;99.90;;;;;;5054007;28;20540;-67
2022/01/28 06:19:36;;;;;;;5.22;0.85;;;26.70;99.90;;;;;;5053089;28;20025;-67
2022/01/28 06:22:04;;;;;;;5.65;0.73;;;26.70;99.90;;;;;;5055284;28;20048;-67
2022/01/28 06:24:31;;;;;;;9.13;0.90;;;26.50;99.90;;;;;;5054125;28;20051;-67
2022/01/28 06:26:59;;;;;;;3.92;0.57;;;26.60;99.90;;;;;;5053817;28;20406;-67
2022/01/28 06:29:27;;;;;;;5.78;1.27;;;26.70;99.90;;;;;;5054853;28;20329;-67
2022/01/28 06:31:54;;;;;;;3.67;0.55;;;26.70;99.90;;;;;;5053815;28;20051;-67
2022/01/28 06:34:21;;;;;;;7.93;1.30;;;26.50;99.90;;;;;;5052023;28;20489;-67
2022/01/28 06:36:49;;;;;;;6.90;0.63;;;26.50;99.90;;;;;;5053685;28;20025;-67
2022/01/28 06:39:16;;;;;;;5.32;0.75;;;26.40;99.90;;;;;;5054778;28;20070;-67
2022/01/28 06:41:44;;;;;;;7.28;0.98;;;26.50;99.90;;;;;;5050767;28;20037;-67
2022/01/28 06:44:11;;;;;;;5.00;0.55;;;26.60;99.90;;;;;;5054763;28;20021;-67
2022/01/28 06:46:42;;;;;;;3.03;0.40;;;26.40;99.90;;;;;;5054025;28;20065;-66
2022/01/28 06:49:09;;;;;;;6.07;1.02;;;26.50;99.90;;;;;;5054623;28;20021;-67
2022/01/28 06:51:37;;;;;;;7.57;1.05;;;26.40;99.90;;;;;;5053537;28;20031;-67
2022/01/28 06:54:05;;;;;;;4.35;0.60;;;26.40;99.90;;;;;;5053318;28;20025;-66
2022/01/28 06:56:32;;;;;;;8.40;0.88;;;26.30;99.90;;;;;;5052854;28;20033;-66
2022/01/28 06:58:59;;;;;;;6.43;0.80;;;26.30;99.90;;;;;;5034542;28;20026;-67
2022/01/28 07:01:27;;;;;;;5.72;0.88;;;26.30;99.90;;;;;;5052560;28;20033;-66
2022/01/28 07:03:54;;;;;;;4.95;0.70;;;26.30;99.90;;;;;;5052577;28;20037;-66
2022/01/28 07:06:23;;;;;;;3.95;0.45;;;26.40;99.90;;;;;;5052907;28;20036;-67
2022/01/28 07:08:51;;;;;;;5.38;1.45;;;26.60;99.90;;;;;;5053830;28;20029;-67
2022/01/28 07:11:18;;;;;;;6.72;1.08;;;27.00;99.90;;;;;;5054645;28;20389;-66
2022/01/28 07:13:45;;;;;;;5.60;1.00;;;27.80;99.90;;;;;;5051751;28;20481;-66
2022/01/28 07:16:13;;;;;;;7.30;0.95;;;27.50;99.90;;;;;;5055447;28;20454;-67
2022/01/28 07:18:43;;;;;;;4.22;0.68;;;26.90;99.90;;;;;;5051963;28;20075;-67
2022/01/28 07:21:10;;;;;;;5.65;0.93;;;26.60;99.90;;;;;;5053308;28;20059;-66
2022/01/28 07:23:37;;;;;;;4.10;0.60;;;26.30;99.90;;;;;;5052119;28;20041;-66
2022/01/28 07:26:08;;;;;;;5.60;1.33;;;26.10;99.90;;;;;;5053388;28;20055;-66
2022/01/28 07:28:36;;;;;;;11.23;2.03;;;25.90;99.90;;;;;;5050667;28;20394;-67
2022/01/28 07:31:03;;;;;;;5.78;1.02;;;26.10;99.90;;;;;;5053730;28;20056;-66
2022/01/28 07:33:31;;;;;;;7.78;1.00;;;26.10;99.90;;;;;;5053427;28;20431;-67
2022/01/28 07:35:59;;;;;;;5.22;0.95;;;26.60;99.90;;;;;;5052986;28;20032;-66
2022/01/28 07:38:26;;;;;;;5.15;1.05;;;26.90;99.90;;;;;;5052826;28;20021;-66
2022/01/28 07:40:57;;;;;;;6.80;1.35;;;26.60;99.90;;;;;;5048712;28;20363;-67
2022/01/28 07:43:25;;;;;;;5.05;1.00;;;26.60;99.90;;;;;;5052453;28;20039;-67
2022/01/28 07:45:52;;;;;;;5.55;0.80;;;26.30;99.90;;;;;;5052161;28;20033;-67
2022/01/28 07:48:20;;;;;;;6.15;0.90;;;26.00;99.90;;;;;;5050146;28;20044;-67
2022/01/28 07:50:47;;;;;;;7.88;1.05;;;25.80;99.90;;;;;;5053510;28;20016;-67
2022/01/28 07:53:16;;;;;;;7.55;1.35;;;25.40;99.90;;;;;;5051082;28;20028;-66
2022/01/28 07:55:44;;;;;;;7.65;0.90;;;25.30;99.90;;;;;;5052650;28;20025;-68
2022/01/28 07:58:12;;;;;;;6.00;0.77;;;25.40;99.90;;;;;;5051231;28;20023;-67
2022/01/28 08:00:39;;;;;;;10.98;1.55;;;25.30;99.90;;;;;;5051522;28;20017;-68
2022/01/28 08:03:07;;;;;;;8.38;1.30;;;25.20;99.90;;;;;;5051411;28;20064;-65
2022/01/28 08:05:34;;;;;;;10.02;1.58;;;25.20;99.90;;;;;;5052019;28;20025;-65
2022/01/28 08:08:05;;;;;;;9.50;1.52;;;25.20;99.90;;;;;;5050396;28;20021;-67
2022/01/28 08:10:33;;;;;;;6.68;1.17;;;25.20;99.90;;;;;;5052236;28;20025;-65
2022/01/28 08:13:05;;;;;;;5.00;1.02;;;25.10;99.90;;;;;;5052670;28;20021;-65
2022/01/28 08:15:34;;;;;;;8.30;1.63;;;25.00;99.90;;;;;;5048788;28;20028;-64
2022/01/28 08:18:03;;;;;;;9.00;1.30;;;25.00;99.90;;;;;;5051444;28;20524;-67
2022/01/28 08:20:30;;;;;;;7.15;0.95;;;24.90;99.90;;;;;;5053450;28;20074;-67
2022/01/28 08:22:58;;;;;;;6.93;0.70;;;25.00;99.90;;;;;;5050928;28;20021;-67
2022/01/28 08:25:27;;;;;;;7.55;1.05;;;24.90;99.90;;;;;;5053049;28;20075;-67
2022/01/28 08:27:55;;;;;;;6.88;1.15;;;24.90;99.90;;;;;;5051846;28;20495;-67
2022/01/28 08:30:26;;;;;;;11.30;1.42;;;24.70;99.90;;;;;;5051851;28;20029;-67
2022/01/28 08:32:54;;;;;;;6.55;0.90;;;24.70;99.90;;;;;;5051734;28;20103;-67
2022/01/28 08:35:29;;;;;;;5.30;1.00;;;24.70;99.90;;;;;;5052830;28;20021;-67
2022/01/28 08:37:57;;;;;;;5.38;1.65;;;24.60;99.90;;;;;;5051810;28;20025;-67
2022/01/28 08:40:26;;;;;;;14.30;1.52;;;24.60;99.90;;;;;;5053011;28;20052;-67
2022/01/28 08:42:54;;;;;;;10.23;1.30;;;24.50;99.90;;;;;;5050535;28;20032;-65
2022/01/28 08:45:22;;;;;;;10.80;1.38;;;24.60;99.90;;;;;;5051607;28;20036;-65
2022/01/28 08:47:49;;;;;;;11.18;2.00;;;24.50;99.90;;;;;;5051613;28;20075;-66
2022/01/28 08:50:17;;;;;;;8.38;1.42;;;24.50;99.90;;;;;;5051888;28;20032;-66
2022/01/28 08:52:46;;;;;;;10.02;1.35;;;24.50;99.90;;;;;;5050124;28;20021;-66
2022/01/28 08:55:15;;;;;;;9.05;1.65;;;24.40;99.90;;;;;;5052008;28;20025;-66
2022/01/28 08:57:44;;;;;;;8.32;1.00;;;24.40;99.90;;;;;;5052414;28;20099;-66
2022/01/28 09:00:17;;;;;;;7.60;1.30;;;24.40;99.90;;;;;;5057064;28;20381;-66
2022/01/28 09:02:45;;;;;;;10.48;1.70;;;24.40;99.90;;;;;;5054112;28;20032;-66
2022/01/28 09:05:13;;;;;;;6.53;1.35;;;24.40;99.90;;;;;;5055947;28;20475;-66
2022/01/28 09:07:40;;;;;;;9.07;1.38;;;24.30;99.90;;;;;;5053600;28;20029;-66
2022/01/28 09:10:18;;;;;;;10.43;1.52;;;24.30;99.90;;;;;;5056881;28;20029;-66
2022/01/28 09:15:39;;;;;;;11.07;1.63;;;24.20;99.90;;;;;;5055025;28;20028;-66
2022/01/28 09:18:09;;;;;;;17.52;1.73;;;24.20;99.90;;;;;;5055269;28;20098;-66
2022/01/28 09:20:37;;;;;;;13.82;1.75;;;24.20;99.90;;;;;;5056132;28;20087;-66
2022/01/28 09:23:07;;;;;;;11.52;1.80;;;24.20;99.90;;;;;;5055236;28;20096;-66
2022/01/28 09:25:34;;;;;;;8.27;2.10;;;24.10;99.90;;;;;;5055438;28;20363;-66
2022/01/28 09:28:02;;;;;;;13.27;2.92;;;24.10;99.90;;;;;;5055502;28;20052;-66
2022/01/28 09:30:30;;;;;;;17.33;2.63;;;24.10;99.90;;;;;;5056288;28;20025;-66
2022/01/28 09:32:58;;;;;;;11.93;1.35;;;24.10;99.90;;;;;;5055142;28;20071;-66
2022/01/28 09:35:26;;;;;;;10.82;1.90;;;24.10;99.90;;;;;;5055330;28;20033;-66
2022/01/28 09:37:54;;;;;;;16.38;2.60;;;24.10;99.90;;;;;;5054971;28;20104;-66
2022/01/28 09:40:22;;;;;;;8.77;2.17;;;24.00;99.90;;;;;;5055959;28;20024;-66
2022/01/28 09:42:52;;;;;;;12.85;1.58;;;24.00;99.90;;;;;;5052670;28;20031;-66
2022/01/28 09:45:23;;;;;;;9.63;1.27;;;24.00;99.90;;;;;;5055941;28;20115;-66
2022/01/28 09:47:53;;;;;;;6.82;1.77;;;24.00;99.90;;;;;;5054663;28;20025;-66
2022/01/28 09:50:25;;;;;;;10.25;1.75;;;23.90;99.90;;;;;;5054327;28;20021;-66
2022/01/28 09:52:55;;;;;;;11.20;2.47;;;23.90;99.90;;;;;;5054183;28;20025;-66
2022/01/28 09:55:24;;;;;;;12.57;1.88;;;24.00;99.90;;;;;;5055627;28;20052;-66
2022/01/28 09:58:01;;;;;;;15.02;1.95;;;24.00;99.90;;;;;;5050041;28;20021;-66
2022/01/28 10:00:31;;;;;;;13.75;2.35;;;24.00;99.90;;;;;;5050569;28;20044;-66
2022/01/28 10:03:04;;;;;;;8.63;1.77;;;23.90;99.90;;;;;;5054629;28;20025;-66
2022/01/28 10:05:36;;;;;;;15.43;2.45;;;23.90;99.90;;;;;;5053621;28;20031;-66
2022/01/28 10:08:15;;;;;;;10.48;1.90;;;23.80;99.90;;;;;;5046794;28;20122;-66
2022/01/28 10:10:49;;;;;;;10.88;1.60;;;23.80;99.90;;;;;;5054247;28;20032;-66
2022/01/28 10:13:29;;;;;;;12.70;2.47;;;23.90;99.90;;;;;;5052917;28;20104;-66
2022/01/28 10:16:03;;;;;;;11.10;1.83;;;23.90;99.90;;;;;;5055497;28;20029;-66
2022/01/28 10:18:48;;;;;;;13.25;2.33;;;23.80;99.90;;;;;;5054415;28;20029;-66
2022/01/28 10:21:16;;;;;;;18.17;2.40;;;23.80;99.90;;;;;;5055460;28;20021;-66
2022/01/28 10:24:04;;;;;;;10.82;2.13;;;23.80;99.90;;;;;;5054544;28;20470;-66
2022/01/28 10:26:37;;;;;;;15.00;2.22;;;23.80;99.90;;;;;;5045684;28;20508;-67
2022/01/28 10:29:16;;;;;;;17.40;1.65;;;23.90;99.90;;;;;;5035125;28;20022;-70
2022/01/28 10:31:52;;;;;;;9.05;1.83;;;23.80;99.90;;;;;;5036898;28;22321;-67
2022/01/28 10:34:26;;;;;;;15.48;1.95;;;23.80;99.90;;;;;;5054983;28;20029;-67
2022/01/28 10:37:15;;;;;;;13.93;2.30;;;23.80;99.90;;;;;;5053898;28;20017;-67
2022/01/28 10:40:09;;;;;;;13.63;1.92;;;23.80;99.90;;;;;;5054969;28;20048;-67
2022/01/28 10:42:49;;;;;;;10.70;1.92;;;23.80;99.90;;;;;;5052256;28;20473;-68
2022/01/28 10:45:21;;;;;;;15.27;2.63;;;23.80;99.90;;;;;;5052395;28;20029;-69
2022/01/28 10:47:57;;;;;;;13.23;2.33;;;23.80;99.90;;;;;;5048236;28;20044;-66
2022/01/28 10:50:38;;;;;;;12.38;1.95;;;23.70;99.90;;;;;;5034627;28;20032;-66
2022/01/28 10:53:06;;;;;;;9.18;1.50;;;23.70;99.90;;;;;;5049681;28;20037;-66
2022/01/28 10:55:40;;;;;;;11.35;2.25;;;23.80;99.90;;;;;;5055452;28;20013;-66
2022/01/28 10:58:16;;;;;;;11.80;1.75;;;23.80;99.90;;;;;;5053756;28;20401;-66
2022/01/28 11:00:49;;;;;;;14.55;1.88;;;23.70;99.90;;;;;;5054187;28;20021;-66
2022/01/28 11:03:24;;;;;;;12.43;2.85;;;23.80;99.90;;;;;;5053223;28;20037;-66
2022/01/28 11:05:59;;;;;;;10.50;1.30;;;23.70;99.90;;;;;;5053651;28;20029;-66
2022/01/28 11:08:29;;;;;;;19.85;2.33;;;23.70;99.90;;;;;;5053181;28;20482;-67
2022/01/28 11:10:57;;;;;;;11.90;1.55;;;23.70;99.90;;;;;;5054828;28;20025;-66
2022/01/28 11:13:25;;;;;;;16.17;1.60;;;23.70;99.90;;;;;;5053144;28;20535;-67
2022/01/28 11:15:52;;;;;;;15.07;2.58;;;23.70;99.90;;;;;;5054033;28;20043;-66
2022/01/28 11:18:20;;;;;;;15.13;2.60;;;23.60;99.90;;;;;;5051714;28;20025;-66
2022/01/28 11:21:04;;;;;;;13.20;2.22;;;23.60;99.90;;;;;;5052986;28;20107;-67
2022/01/28 11:24:17;;;;;;;15.00;1.77;;;23.60;99.90;;;;;;5052143;28;20120;-66
2022/01/28 11:26:54;;;;;;;13.15;2.42;;;23.60;99.90;;;;;;5027197;28;20110;-66
2022/01/28 11:29:27;;;;;;;9.75;1.90;;;23.60;99.90;;;;;;5052731;28;20090;-66
2022/01/28 11:31:57;;;;;;;13.02;2.10;;;23.60;99.90;;;;;;5050994;28;20031;-66
2022/01/28 11:34:30;;;;;;;16.02;1.65;;;23.60;99.90;;;;;;5047295;28;20098;-66
2022/01/28 11:37:19;;;;;;;13.27;1.58;;;23.60;99.90;;;;;;5051102;28;20105;-66
2022/01/28 11:39:50;;;;;;;17.02;2.58;;;23.60;99.90;;;;;;5043868;28;20041;-67
2022/01/28 11:42:31;;;;;;;13.60;2.25;;;23.60;99.90;;;;;;5050719;28;20090;-67
2022/01/28 11:45:01;;;;;;;9.18;1.92;;;23.50;99.90;;;;;;5051702;28;20061;-66
2022/01/28 11:47:29;;;;;;;12.10;2.20;;;23.60;99.90;;;;;;5041335;28;20017;-67
2022/01/28 11:50:15;;;;;;;17.33;2.28;;;23.50;99.90;;;;;;5050962;28;20887;-66
2022/01/28 11:52:45;;;;;;;16.95;2.67;;;23.50;99.90;;;;;;5049949;28;20025;-67
2022/01/28 11:55:20;;;;;;;17.15;1.55;;;23.50;99.90;;;;;;5051980;28;20104;-67
2022/01/28 11:58:11;;;;;;;13.43;2.45;;;23.50;99.90;;;;;;5051961;28;20032;-67
2022/01/28 12:00:50;;;;;;;14.15;2.13;;;23.50;99.90;;;;;;5053016;28;20029;-67
2022/01/28 12:03:26;;;;;;;9.25;1.45;;;23.40;99.90;;;;;;5051146;28;20037;-67
2022/01/28 12:05:56;;;;;;;16.40;2.38;;;23.40;99.90;;;;;;5053136;28;20194;-67
2022/01/28 12:08:28;;;;;;;12.02;1.85;;;23.50;99.90;;;;;;5049625;28;20120;-67
2022/01/28 12:10:56;;;;;;;11.75;1.80;;;23.40;99.90;;;;;;5052204;28;20025;-67
2022/01/28 12:13:33;;;;;;;13.77;2.75;;;23.40;99.90;;;;;;5051828;28;20083;-67
2022/01/28 12:16:09;;;;;;;14.70;2.83;;;23.40;99.90;;;;;;5051258;28;20541;-66
2022/01/28 12:18:53;;;;;;;12.60;2.38;;;23.40;99.90;;;;;;5051066;28;20033;-66
2022/01/28 12:21:29;;;;;;;13.32;1.75;;;23.50;99.90;;;;;;5052268;28;20074;-66
2022/01/28 12:24:19;;;;;;;14.57;1.95;;;23.40;99.90;;;;;;5050810;28;20029;-66
2022/01/28 12:27:03;;;;;;;12.98;1.40;;;23.40;99.90;;;;;;5049393;28;21725;-67
2022/01/28 12:29:33;;;;;;;12.75;1.60;;;23.40;99.90;;;;;;5051703;28;20481;-66
2022/01/28 12:32:02;;;;;;;18.02;3.55;;;23.40;99.90;;;;;;5051094;28;20024;-66
2022/01/28 12:34:29;;;;;;;12.07;2.25;;;23.40;99.90;;;;;;5051545;28;20021;-66
2022/01/28 12:36:58;;;;;;;11.73;2.65;;;23.40;99.90;;;;;;5051842;28;20028;-66
2022/01/28 12:39:35;;;;;;;10.82;2.17;;;23.40;99.90;;;;;;5051832;28;20029;-66
2022/01/28 12:42:09;;;;;;;15.02;2.97;;;23.40;99.90;;;;;;5051648;28;20052;-66
2022/01/28 12:44:38;;;;;;;7.10;1.17;;;23.40;99.90;;;;;;5052466;28;20075;-67
2022/01/28 12:47:09;;;;;;;11.40;1.63;;;23.40;99.90;;;;;;5051752;28;20113;-66
2022/01/28 12:49:38;;;;;;;16.17;2.38;;;23.40;99.90;;;;;;5051921;28;20034;-67
2022/01/28 12:52:08;;;;;;;17.05;2.17;;;23.40;99.90;;;;;;5050689;28;20021;-66
2022/01/28 12:54:45;;;;;;;11.30;1.70;;;23.40;99.90;;;;;;5051731;28;20033;-66
2022/01/28 12:57:16;;;;;;;12.27;1.75;;;23.40;99.90;;;;;;5051909;28;20021;-66
2022/01/28 12:59:48;;;;;;;18.52;2.08;;;23.30;99.90;;;;;;5051762;28;20021;-67
2022/01/28 13:02:18;;;;;;;12.15;1.83;;;23.40;99.90;;;;;;5050551;28;20025;-66
2022/01/28 13:05:11;;;;;;;14.38;2.10;;;23.30;99.90;;;;;;5052637;28;20029;-66
2022/01/28 13:10:33;;;;;;;12.25;2.00;;;23.30;99.90;;;;;;5052721;28;20036;-67
2022/01/28 13:13:08;;;;;;;12.68;2.20;;;23.30;99.90;;;;;;5051395;28;20429;-66
2022/01/28 13:15:37;;;;;;;7.68;1.15;;;23.30;99.90;;;;;;5049861;28;20017;-66
2022/01/28 13:18:07;;;;;;;12.32;1.55;;;23.30;99.90;;;;;;5051506;28;20022;-66
2022/01/28 13:20:40;;;;;;;15.52;2.50;;;23.30;99.90;;;;;;5048794;28;20375;-67
2022/01/28 13:23:10;;;;;;;14.50;1.83;;;23.30;99.90;;;;;;5051084;28;20029;-67
2022/01/28 13:25:38;;;;;;;15.90;2.03;;;23.20;99.90;;;;;;5052035;28;20055;-67
2022/01/28 13:28:13;;;;;;;13.13;1.85;;;23.20;99.90;;;;;;5051381;28;20398;-68
2022/01/28 13:30:41;;;;;;;10.20;1.25;;;23.20;99.90;;;;;;5033361;28;20067;-66
2022/01/28 13:33:11;;;;;;;14.63;2.70;;;23.20;99.90;;;;;;5044073;28;20467;-66
2022/01/28 13:35:39;;;;;;;14.65;2.78;;;23.20;99.90;;;;;;5052050;28;20032;-67
2022/01/28 13:38:20;;;;;;;15.48;2.47;;;23.20;99.90;;;;;;5049447;28;20379;-67
2022/01/28 13:40:47;;;;;;;15.93;1.65;;;23.20;99.90;;;;;;5040048;28;20033;-67
2022/01/28 13:43:18;;;;;;;21.60;3.22;;;23.20;99.90;;;;;;5050002;28;20041;-66
2022/01/28 13:45:54;;;;;;;13.88;1.90;;;23.20;99.90;;;;;;5054433;28;20381;-67
2022/01/28 13:48:34;;;;;;;10.98;1.92;;;23.20;99.90;;;;;;5054707;28;20381;-67
2022/01/28 13:51:25;;;;;;;14.07;2.35;;;23.20;99.90;;;;;;5056053;28;20043;-67
2022/01/28 13:54:15;;;;;;;14.48;2.38;;;23.20;99.90;;;;;;5054892;28;20024;-67
2022/01/28 13:56:46;;;;;;;11.00;2.15;;;23.10;99.90;;;;;;5054763;28;20028;-67
2022/01/28 13:59:16;;;;;;;13.85;1.77;;;23.10;99.90;;;;;;5055726;28;20065;-67
2022/01/28 14:01:48;;;;;;;13.13;2.10;;;23.10;99.90;;;;;;5054688;28;20029;-67
2022/01/28 14:04:23;;;;;;;10.93;1.83;;;23.10;99.90;;;;;;5054916;28;20060;-67
2022/01/28 14:07:07;;;;;;;13.48;2.17;;;23.10;99.90;;;;;;5053817;28;20025;-67
2022/01/28 14:10:00;;;;;;;13.38;1.95;;;23.10;99.90;;;;;;5054608;28;20028;-67
2022/01/28 14:12:49;;;;;;;17.13;3.15;;;23.10;99.90;;;;;;5052001;28;20048;-67
2022/01/28 14:15:42;;;;;;;17.90;2.33;;;23.10;99.90;;;;;;5053353;28;20485;-67
2022/01/28 14:18:10;;;;;;;9.55;1.70;;;23.00;99.90;;;;;;5052991;28;20039;-67
2022/01/28 14:20:37;;;;;;;14.25;2.17;;;23.00;99.90;;;;;;5054812;28;20025;-67
2022/01/28 14:23:04;;;;;;;12.68;2.55;;;23.00;99.90;;;;;;5054593;28;20512;-67
2022/01/28 14:25:31;;;;;;;18.75;2.13;;;23.00;99.90;;;;;;5053858;28;20436;-67
2022/01/28 14:28:12;;;;;;;16.08;2.22;;;23.00;99.90;;;;;;5051806;28;20421;-67
2022/01/28 14:30:41;;;;;;;14.75;2.28;;;23.00;99.90;;;;;;5054121;28;20020;-67
2022/01/28 14:33:10;;;;;;;13.55;1.80;;;23.00;99.90;;;;;;5054201;28;20021;-67
2022/01/28 14:35:41;;;;;;;10.50;1.83;;;23.00;99.90;;;;;;5053214;28;20025;-67